This is the latest recevied weather packets stored in our database for station/object JO1YDG-13. If no packets are shown the sender has not sent any weather packets the latest 1 day(s).
| Time | Temp. | Humidity | Pressure | Rain* | Wind** | Luminosity | Snow |
|---|---|---|---|---|---|---|---|
| 1778020684 | 13.33° C | 70% | 995.5 hPa | 0 mm | 0.89 m/s, 147° | - | - |
| 1778020383 | 13.33° C | 71% | 995.5 hPa | 0 mm | 0.89 m/s, 117° | - | - |
| 1778020083 | 12.78° C | 72% | 995.5 hPa | 0 mm | 0.45 m/s, 144° | - | - |
| 1778019783 | 12.78° C | 72% | 995.4 hPa | 0 mm | 0.89 m/s, 270° | - | - |
| 1778019483 | 12.78° C | 73% | 995.4 hPa | 0 mm | 0.89 m/s, 215° | - | - |
| 1778019185 | 12.78° C | 74% | 995.4 hPa | 0 mm | 0.89 m/s, 193° | - | - |
| 1778018885 | 12.78° C | 73% | 995.4 hPa | 0 mm | 0.89 m/s, 252° | - | - |
| 1778018584 | 12.78° C | 73% | 995.4 hPa | 0 mm | 0.45 m/s, 216° | - | - |
| 1778018284 | 12.78° C | 73% | 995.7 hPa | 0 mm | 0.89 m/s, 216° | - | - |
| 1778017984 | 12.22° C | 71% | 995.7 hPa | 0 mm | 0.89 m/s, 333° | - | - |
| 1778017684 | 12.22° C | 71% | 995.5 hPa | 0 mm | 0.89 m/s, 346° | - | - |
| 1778017384 | 12.22° C | 70% | 995.5 hPa | 0 mm | 0.89 m/s, 354° | - | - |
| 1778017084 | 12.22° C | 70% | 995.6 hPa | 0 mm | 0.89 m/s, 323° | - | - |
| 1778016783 | 12.22° C | 71% | 995.6 hPa | 0 mm | 0.89 m/s, 338° | - | - |
| 1778016483 | 12.22° C | 74% | 995.6 hPa | 0 mm | 0.89 m/s, 339° | - | - |
| 1778016184 | 11.67° C | 74% | 995.5 hPa | 0 mm | 0 m/s | - | - |
| 1778015884 | 11.67° C | 75% | 995.5 hPa | 0 mm | 0 m/s | - | - |
| 1778015585 | 11.11° C | 77% | 995.6 hPa | 0 mm | 0.45 m/s, 97° | - | - |
| 1778015285 | 11.11° C | 77% | 995.6 hPa | 0 mm | 0.45 m/s, 147° | - | - |
| 1778014984 | 11.11° C | 79% | 995.6 hPa | 0 mm | 0.45 m/s, 169° | - | - |
| 1778014683 | 10.56° C | 81% | 995.6 hPa | 0 mm | 0.45 m/s, 162° | - | - |
| 1778014383 | 10.56° C | 81% | 995.6 hPa | 0 mm | 0.89 m/s, 112° | - | - |
| 1778014085 | 10.56° C | 80% | 995.5 hPa | 0 mm | 0 m/s | - | - |
| 1778013784 | 10.56° C | 79% | 995.5 hPa | 0 mm | 0 m/s | - | - |
| 1778013484 | 10.56° C | 80% | 995.6 hPa | 0 mm | 0 m/s | - | - |
* Rain latest hour (hover to see other rain measurements)
** Current wind speed in m/s (hover to see current wind gust speed)